Terminal Aerodrome Forecast
Issued by NWS Melbourne, FL

Home | Current Version | Previous Version | Text Only | Print | Product List | Glossary On
Versions: 1 2 3 4 5 6 7 8 9 10 11 12
847
FTUS42 KMLB 161418 AAA
TAFVRB
TAF AMD
KVRB 161418Z 1614/1712 35006KT P6SM FEW035
     FM161700 03008KT P6SM SCT040
     FM170000 05005KT P6SM FEW040 SCT250=

USA.gov is the U.S. government's official web portal to all federal, state and local government web resources and services.